createdAt,value
2022-11-08T00:00:50.711Z,14.48
2022-11-08T00:03:20.373Z,15.07
2022-11-08T00:06:07.303Z,14.38
2022-11-08T00:08:55.633Z,15.18
2022-11-08T00:11:42.645Z,15.80
2022-11-08T00:14:12.581Z,15.27
2022-11-08T00:16:42.270Z,16.38
2022-11-08T00:19:11.520Z,15.60
2022-11-08T00:21:40.856Z,15.38
2022-11-08T00:24:12.035Z,15.77
2022-11-08T00:26:41.647Z,15.38
2022-11-08T00:29:10.639Z,16.08
2022-11-08T00:31:40.245Z,17.10
2022-11-08T00:34:09.915Z,16.10
2022-11-08T00:36:39.841Z,17.65
2022-11-08T00:39:11.749Z,16.13
2022-11-08T00:41:41.023Z,16.05
2022-11-08T00:44:10.427Z,16.23
2022-11-08T00:46:41.509Z,14.57
2022-11-08T00:49:10.842Z,14.38
2022-11-08T00:51:40.255Z,14.20
2022-11-08T00:54:14.945Z,14.75
2022-11-08T00:56:44.851Z,15.48
2022-11-08T00:59:15.177Z,14.23
2022-11-08T01:01:44.742Z,14.75
2022-11-08T01:04:16.237Z,15.02
2022-11-08T01:06:46.869Z,15.38
2022-11-08T01:09:18.750Z,15.35
2022-11-08T01:11:48.100Z,12.40
2022-11-08T01:14:17.478Z,13.98
2022-11-08T01:16:46.421Z,14.02
2022-11-08T01:19:15.945Z,14.05
2022-11-08T01:21:46.487Z,16.27
2022-11-08T01:24:15.669Z,14.00
2022-11-08T01:26:46.612Z,13.63
2022-11-08T01:29:15.695Z,14.18
2022-11-08T01:31:44.998Z,13.27
2022-11-08T01:34:14.133Z,13.95
2022-11-08T01:36:43.760Z,13.18
2022-11-08T01:39:13.336Z,14.82
2022-11-08T01:41:43.276Z,13.25
2022-11-08T01:44:18.491Z,14.80
2022-11-08T01:46:48.795Z,14.80
2022-11-08T01:49:38.623Z,12.75
2022-11-08T01:52:29.393Z,13.23
2022-11-08T01:55:06.675Z,12.75
2022-11-08T01:57:44.328Z,13.65
2022-11-08T02:00:16.279Z,13.90
2022-11-08T02:02:51.132Z,13.23
2022-11-08T02:05:27.196Z,12.85
2022-11-08T02:08:01.919Z,11.85
2022-11-08T02:10:36.478Z,13.07
2022-11-08T02:13:14.416Z,13.20
2022-11-08T02:15:45.908Z,12.93
2022-11-08T02:18:17.994Z,12.27
2022-11-08T02:20:58.238Z,12.40
2022-11-08T02:23:30.587Z,12.93
2022-11-08T02:26:01.472Z,13.30
2022-11-08T02:28:40.081Z,13.70
2022-11-08T02:31:10.212Z,12.27
2022-11-08T02:33:40.395Z,13.45
2022-11-08T02:36:13.261Z,12.85
2022-11-08T02:38:46.258Z,14.57
2022-11-08T02:41:19.781Z,13.05
2022-11-08T02:43:49.673Z,13.63
2022-11-08T02:46:19.175Z,13.57
2022-11-08T02:48:48.424Z,12.85
2022-11-08T02:51:17.853Z,13.05
2022-11-08T02:53:47.394Z,13.85
2022-11-08T02:56:16.720Z,12.95
2022-11-08T02:58:47.634Z,12.23
2022-11-08T03:01:17.120Z,12.82
2022-11-08T03:03:46.681Z,12.63
2022-11-08T03:06:18.770Z,13.05
2022-11-08T03:08:48.213Z,11.70
2022-11-08T03:11:17.448Z,13.80
2022-11-08T03:13:47.925Z,12.45
2022-11-08T03:16:17.379Z,11.55
2022-11-08T03:18:46.471Z,12.27
2022-11-08T03:21:18.850Z,12.02
2022-11-08T03:23:50.194Z,12.00
2022-11-08T03:26:22.391Z,11.15
2022-11-08T03:28:53.111Z,12.65
2022-11-08T03:31:22.905Z,12.77
2022-11-08T03:33:52.588Z,14.35
2022-11-08T03:36:22.140Z,12.23
2022-11-08T03:38:51.738Z,11.88
2022-11-08T03:41:21.043Z,12.32
2022-11-08T03:43:52.795Z,13.52
2022-11-08T03:46:25.480Z,12.27
2022-11-08T03:48:54.716Z,12.65
2022-11-08T03:51:24.488Z,11.88
2022-11-08T03:53:53.805Z,11.85
2022-11-08T03:56:23.043Z,11.50
2022-11-08T03:58:52.301Z,12.50
2022-11-08T04:01:22.811Z,12.63
2022-11-08T04:03:53.130Z,13.65
2022-11-08T04:06:23.206Z,11.82
2022-11-08T04:08:52.573Z,13.07
2022-11-08T04:11:39.985Z,12.73
2022-11-08T04:14:27.768Z,12.48
2022-11-08T04:16:58.843Z,13.05
2022-11-08T04:19:45.827Z,12.15
2022-11-08T04:22:17.759Z,12.07
2022-11-08T04:24:46.984Z,12.05
2022-11-08T04:27:16.192Z,10.63
2022-11-08T04:29:45.501Z,14.02
2022-11-08T04:32:16.162Z,12.55
2022-11-08T04:34:46.202Z,12.57
2022-11-08T04:37:15.270Z,12.15
2022-11-08T04:39:45.003Z,11.85
2022-11-08T04:42:16.533Z,11.95
2022-11-08T04:44:46.813Z,13.48
2022-11-08T04:47:17.697Z,12.27
2022-11-08T04:49:47.408Z,13.15
2022-11-08T04:52:17.626Z,12.13
2022-11-08T04:54:47.249Z,12.13
2022-11-08T04:57:16.490Z,11.80
2022-11-08T04:59:45.612Z,12.93
2022-11-08T05:02:16.750Z,12.27
2022-11-08T05:04:46.583Z,12.35
2022-11-08T05:07:16.106Z,12.27
2022-11-08T05:09:45.578Z,12.23
2022-11-08T05:12:14.806Z,12.60
2022-11-08T05:14:44.065Z,13.07
2022-11-08T05:17:14.172Z,13.98
2022-11-08T05:20:02.664Z,14.10
2022-11-08T05:22:50.458Z,12.85
2022-11-08T05:25:20.024Z,12.30
2022-11-08T05:27:49.212Z,13.35
2022-11-08T05:30:18.987Z,12.77
2022-11-08T05:32:48.498Z,13.50
2022-11-08T05:35:21.870Z,12.50
2022-11-08T05:37:54.030Z,13.65
2022-11-08T05:40:23.091Z,13.35
2022-11-08T05:42:54.687Z,14.48
2022-11-08T05:45:24.317Z,14.13
2022-11-08T05:47:54.978Z,13.55
2022-11-08T05:50:26.104Z,11.75
2022-11-08T05:52:55.999Z,12.85
2022-11-08T05:55:25.380Z,12.63
2022-11-08T05:57:54.718Z,13.60
2022-11-08T06:00:24.269Z,12.18
2022-11-08T06:02:53.420Z,12.55
2022-11-08T06:05:23.213Z,13.90
2022-11-08T06:07:56.090Z,13.80
2022-11-08T06:10:25.931Z,13.53
2022-11-08T06:13:00.751Z,13.80
2022-11-08T06:15:30.174Z,13.07
2022-11-08T06:18:03.649Z,14.95
2022-11-08T06:20:33.295Z,12.65
2022-11-08T06:23:03.657Z,12.68
2022-11-08T06:25:33.766Z,13.38
2022-11-08T06:28:02.919Z,13.18
2022-11-08T06:30:32.394Z,13.65
2022-11-08T06:33:01.816Z,12.90
2022-11-08T06:35:33.557Z,12.75
2022-11-08T06:38:09.184Z,14.15
2022-11-08T06:40:39.463Z,13.05
2022-11-08T06:43:09.182Z,12.75
2022-11-08T06:45:38.959Z,13.25
2022-11-08T06:48:09.448Z,13.27
2022-11-08T06:50:39.278Z,14.93
2022-11-08T06:53:15.045Z,13.40
2022-11-08T06:55:44.862Z,14.15
2022-11-08T06:58:15.121Z,14.23
2022-11-08T07:00:47.633Z,13.93
2022-11-08T07:03:19.212Z,14.15
2022-11-08T07:05:48.661Z,14.85
2022-11-08T07:08:23.670Z,13.68
2022-11-08T07:10:54.173Z,14.25
2022-11-08T07:13:23.795Z,14.13
2022-11-08T07:15:53.145Z,14.63
2022-11-08T07:18:23.211Z,14.23
2022-11-08T07:20:53.468Z,14.57
2022-11-08T07:23:24.464Z,14.48
2022-11-08T07:25:53.862Z,13.88
2022-11-08T07:28:23.978Z,14.02
2022-11-08T07:30:59.044Z,14.50
2022-11-08T07:33:28.400Z,15.13
2022-11-08T07:35:57.626Z,15.55
2022-11-08T07:38:28.221Z,14.55
2022-11-08T07:40:59.084Z,14.65
2022-11-08T07:43:30.295Z,15.60
2022-11-08T07:46:10.615Z,15.60
2022-11-08T07:48:39.985Z,16.42
2022-11-08T07:51:09.193Z,15.32
2022-11-08T07:53:42.379Z,16.52
2022-11-08T07:56:12.522Z,15.10
2022-11-08T07:58:42.722Z,16.27
2022-11-08T08:01:12.121Z,16.88
2022-11-08T08:03:41.837Z,15.50
2022-11-08T08:06:11.267Z,16.08
2022-11-08T08:08:42.730Z,14.18
2022-11-08T08:11:12.706Z,14.63
2022-11-08T08:13:41.858Z,14.05
2022-11-08T08:16:11.523Z,15.32
2022-11-08T08:18:41.535Z,16.35
2022-11-08T08:21:11.368Z,16.40
2022-11-08T08:23:44.025Z,16.13
2022-11-08T08:26:13.615Z,14.90
2022-11-08T08:28:43.238Z,15.40
2022-11-08T08:31:14.794Z,15.52
2022-11-08T08:33:44.034Z,15.75
2022-11-08T08:36:13.433Z,16.25
2022-11-08T08:38:44.826Z,16.85
2022-11-08T08:41:14.384Z,17.23
2022-11-08T08:43:43.836Z,17.52
2022-11-08T08:46:13.442Z,16.48
2022-11-08T08:48:42.580Z,15.80
2022-11-08T08:51:11.974Z,16.70
2022-11-08T08:53:41.137Z,18.35
2022-11-08T08:56:13.104Z,17.33
2022-11-08T08:58:42.889Z,17.67
2022-11-08T09:04:05.329Z,17.27
2022-11-08T09:06:35.590Z,17.25
2022-11-08T09:09:07.057Z,17.45
2022-11-08T09:11:38.938Z,17.20
2022-11-08T09:14:10.001Z,16.77
2022-11-08T09:16:42.627Z,19.08
2022-11-08T09:19:11.820Z,18.45
2022-11-08T09:21:41.445Z,20.02
2022-11-08T09:24:11.564Z,19.40
2022-11-08T09:26:42.391Z,18.83
2022-11-08T09:29:12.012Z,18.50
2022-11-08T09:31:41.397Z,19.42
2022-11-08T09:34:10.446Z,19.77
2022-11-08T09:36:40.049Z,19.10
2022-11-08T09:39:10.119Z,19.40
2022-11-08T09:42:03.914Z,19.23
2022-11-08T09:45:11.958Z,20.27
2022-11-08T09:47:45.721Z,20.13
2022-11-08T09:50:22.635Z,17.75
2022-11-08T09:53:02.747Z,18.55
2022-11-08T09:55:44.748Z,19.45
2022-11-08T09:58:29.097Z,18.95
2022-11-08T10:01:03.375Z,19.50
2022-11-08T10:03:32.722Z,20.52
2022-11-08T10:06:28.162Z,20.42
2022-11-08T10:09:06.531Z,17.75
2022-11-08T10:11:54.909Z,18.92
2022-11-08T10:14:49.021Z,20.20
2022-11-08T10:17:39.747Z,19.17
2022-11-08T10:20:21.060Z,19.50
2022-11-08T10:23:00.749Z,19.27
2022-11-08T10:25:37.703Z,19.48
2022-11-08T10:28:08.936Z,21.20
2022-11-08T10:30:42.532Z,20.80
2022-11-08T10:33:19.411Z,20.42
2022-11-08T10:35:56.442Z,19.77
2022-11-08T10:38:35.398Z,19.02
2022-11-08T10:41:12.743Z,21.33
2022-11-08T10:43:46.609Z,18.90
2022-11-08T10:46:38.688Z,19.98
2022-11-08T10:49:26.051Z,19.00
2022-11-08T10:51:57.011Z,19.80
2022-11-08T10:54:48.061Z,21.02
2022-11-08T10:57:25.338Z,19.80
2022-11-08T10:59:56.113Z,20.00
2022-11-08T11:02:36.492Z,20.65
2022-11-08T11:05:24.744Z,20.60
2022-11-08T11:08:04.167Z,19.90
2022-11-08T11:10:35.321Z,20.02
2022-11-08T11:13:07.126Z,21.25
2022-11-08T11:15:38.374Z,21.35
2022-11-08T11:18:23.024Z,21.00
2022-11-08T11:21:07.637Z,21.00
2022-11-08T11:23:41.485Z,21.63
2022-11-08T11:26:21.422Z,21.60
2022-11-08T11:29:18.969Z,20.48
2022-11-08T11:31:51.157Z,18.45
2022-11-08T11:34:41.655Z,18.02
2022-11-08T11:37:20.764Z,19.10
2022-11-08T11:40:02.795Z,18.48
2022-11-08T11:42:45.791Z,19.42
2022-11-08T11:45:20.765Z,19.00
2022-11-08T11:47:54.535Z,18.90
2022-11-08T11:50:34.097Z,18.25
2022-11-08T11:53:07.144Z,18.35
2022-11-08T11:55:52.105Z,18.45
2022-11-08T11:58:40.865Z,18.85
2022-11-08T12:01:19.177Z,17.83
2022-11-08T12:04:05.156Z,18.02
2022-11-08T12:06:45.710Z,18.58
2022-11-08T12:09:30.538Z,17.33
2022-11-08T12:12:13.012Z,17.42
2022-11-08T12:15:03.421Z,17.10
2022-11-08T12:18:02.998Z,18.52
2022-11-08T12:20:45.111Z,18.05
2022-11-08T12:23:56.957Z,16.33
2022-11-08T12:26:32.652Z,17.08
2022-11-08T12:29:12.062Z,17.88
2022-11-08T12:31:49.699Z,18.52
2022-11-08T12:34:24.454Z,19.52
2022-11-08T12:37:04.893Z,18.10
2022-11-08T12:39:45.222Z,19.40
2022-11-08T12:42:59.245Z,18.33
2022-11-08T12:45:51.452Z,18.73
2022-11-08T12:48:33.236Z,20.00
2022-11-08T12:51:07.828Z,18.90
2022-11-08T12:53:58.350Z,21.30
2022-11-08T12:56:35.983Z,21.33
2022-11-08T12:59:21.405Z,22.48
2022-11-08T13:01:51.784Z,22.52
2022-11-08T13:04:49.724Z,23.58
2022-11-08T13:07:31.667Z,22.33
2022-11-08T13:10:12.273Z,21.38
2022-11-08T13:13:10.138Z,23.63
2022-11-08T13:16:21.863Z,23.42
2022-11-08T13:18:52.711Z,20.30
2022-11-08T13:21:42.495Z,22.50
2022-11-08T13:24:45.501Z,21.60
2022-11-08T13:27:36.657Z,20.67
2022-11-08T13:30:38.857Z,21.35
2022-11-08T13:33:27.673Z,20.45
2022-11-08T13:36:13.068Z,21.23
2022-11-08T13:38:54.459Z,21.15
2022-11-08T13:41:27.431Z,21.58
2022-11-08T13:43:58.982Z,21.58
2022-11-08T13:46:48.874Z,23.15
2022-11-08T13:49:24.301Z,23.75
2022-11-08T13:52:46.876Z,23.85
2022-11-08T13:55:47.440Z,23.50
2022-11-08T13:58:37.196Z,24.90
2022-11-08T14:01:08.174Z,23.13
2022-11-08T14:03:57.927Z,24.05
2022-11-08T14:06:39.514Z,25.05
2022-11-08T14:09:21.441Z,22.30
2022-11-08T14:12:04.552Z,22.48
2022-11-08T14:14:42.050Z,22.63
2022-11-08T14:17:40.827Z,24.35
2022-11-08T14:20:37.263Z,23.13
2022-11-08T14:23:25.204Z,22.55
2022-11-08T14:26:18.263Z,22.58
2022-11-08T14:28:50.057Z,31.33
2022-11-08T14:31:30.034Z,24.00
2022-11-08T14:34:01.674Z,24.52
2022-11-08T14:36:45.459Z,25.20
2022-11-08T14:39:19.896Z,31.55
2022-11-08T14:41:59.671Z,23.42
2022-11-08T14:44:44.284Z,25.38
2022-11-08T14:47:25.363Z,27.67
2022-11-08T14:49:59.442Z,23.55
2022-11-08T14:52:41.056Z,22.42
2022-11-08T14:55:26.200Z,23.77
2022-11-08T14:57:56.388Z,51.65
2022-11-08T15:00:32.814Z,27.30
2022-11-08T15:03:08.292Z,23.88
2022-11-08T15:05:42.816Z,23.00
2022-11-08T15:08:25.971Z,23.10
2022-11-08T15:11:03.724Z,23.58
2022-11-08T15:13:41.832Z,22.63
2022-11-08T15:16:15.627Z,23.05
2022-11-08T15:18:48.733Z,22.70
2022-11-08T15:21:28.679Z,22.40
2022-11-08T15:24:12.769Z,24.23
2022-11-08T15:27:02.275Z,22.35
2022-11-08T15:29:52.598Z,21.52
2022-11-08T15:32:24.933Z,21.17
2022-11-08T15:34:58.903Z,21.38
2022-11-08T15:37:36.779Z,22.60
2022-11-08T15:40:23.334Z,31.90
2022-11-08T15:42:54.534Z,21.42
2022-11-08T15:48:12.843Z,20.65
2022-11-08T15:53:15.214Z,21.35
2022-11-08T15:55:54.563Z,21.05
2022-11-08T15:58:32.993Z,20.98
2022-11-08T16:01:05.110Z,22.05
2022-11-08T16:03:37.847Z,23.45
2022-11-08T16:06:14.919Z,22.27
2022-11-08T16:08:45.142Z,23.05
2022-11-08T16:11:21.214Z,23.45
2022-11-08T16:13:52.561Z,23.20
2022-11-08T16:19:05.199Z,22.63
2022-11-08T16:21:35.580Z,25.15
2022-11-08T16:24:05.945Z,24.27
2022-11-08T16:26:36.581Z,24.30
2022-11-08T16:29:13.649Z,24.13
2022-11-08T16:32:03.860Z,26.10
2022-11-08T16:34:43.467Z,24.27
2022-11-08T16:37:13.811Z,24.45
2022-11-08T16:40:03.350Z,23.90
2022-11-08T16:42:34.112Z,29.25
2022-11-08T16:45:05.901Z,26.63
2022-11-08T16:47:36.323Z,26.80
2022-11-08T16:50:06.860Z,25.80
2022-11-08T16:52:36.666Z,25.35
2022-11-08T16:55:07.305Z,24.42
2022-11-08T16:57:39.972Z,27.90
2022-11-08T17:00:13.952Z,27.07
2022-11-08T17:02:49.609Z,25.80
2022-11-08T17:05:21.610Z,26.15
2022-11-08T17:07:56.314Z,25.73
2022-11-08T17:10:33.692Z,27.83
2022-11-08T17:13:06.565Z,30.20
2022-11-08T17:15:38.727Z,27.92
2022-11-08T17:18:09.469Z,29.20
2022-11-08T17:20:45.519Z,30.52
2022-11-08T17:23:18.271Z,31.13
2022-11-08T17:25:56.242Z,29.65
2022-11-08T17:28:29.504Z,29.42
2022-11-08T17:31:26.463Z,28.05
2022-11-08T17:34:08.176Z,30.90
2022-11-08T17:43:46.173Z,33.20
2022-11-08T17:46:40.014Z,32.28
2022-11-08T17:50:15.771Z,31.75
2022-11-08T17:53:04.561Z,31.90
2022-11-08T17:56:02.874Z,33.35
2022-11-08T17:58:44.930Z,31.55
2022-11-08T18:01:28.145Z,30.58
2022-11-08T18:04:07.143Z,28.60
2022-11-08T18:07:47.587Z,28.50
2022-11-08T18:13:42.834Z,26.75
2022-11-08T18:25:12.927Z,28.52
2022-11-08T18:28:11.262Z,27.02
2022-11-08T18:32:12.581Z,29.42
2022-11-08T18:35:11.848Z,29.83
2022-11-08T18:38:43.574Z,29.80
2022-11-08T18:41:58.320Z,30.42
2022-11-08T18:45:46.346Z,29.13
2022-11-08T18:48:55.491Z,28.02
2022-11-08T18:52:03.319Z,29.80
2022-11-08T18:55:19.447Z,30.27
2022-11-08T19:01:26.769Z,29.42
2022-11-08T19:04:16.233Z,30.65
2022-11-08T19:11:37.561Z,30.15
2022-11-08T19:25:07.607Z,31.75
2022-11-08T19:27:44.540Z,31.05
2022-11-08T19:30:26.393Z,31.20
2022-11-08T19:32:59.016Z,33.08
2022-11-08T19:35:39.879Z,29.05
2022-11-08T19:38:24.447Z,32.63
2022-11-08T19:41:10.248Z,31.90
2022-11-08T19:43:55.200Z,33.08
2022-11-08T19:46:37.248Z,32.45
2022-11-08T19:49:26.972Z,30.25
2022-11-08T19:52:12.539Z,32.40
2022-11-08T19:54:44.040Z,32.22
2022-11-08T19:57:19.710Z,34.28
2022-11-08T19:59:56.323Z,30.48
2022-11-08T20:02:38.685Z,32.22
2022-11-08T20:05:11.812Z,31.42
2022-11-08T20:07:47.953Z,31.67
2022-11-08T20:10:18.450Z,31.60
2022-11-08T20:12:52.037Z,33.42
2022-11-08T20:15:27.629Z,32.35
2022-11-08T20:17:57.776Z,34.45
2022-11-08T20:20:30.907Z,36.97
2022-11-08T20:23:06.528Z,34.75
2022-11-08T20:25:37.357Z,32.83
2022-11-08T20:28:09.454Z,35.30
2022-11-08T20:30:47.952Z,31.80
2022-11-08T20:33:20.302Z,33.28
2022-11-08T20:35:49.759Z,31.60
2022-11-08T20:38:28.333Z,31.20
2022-11-08T20:41:02.681Z,34.33
2022-11-08T20:43:48.531Z,33.30
2022-11-08T20:46:21.089Z,31.55
2022-11-08T20:48:59.912Z,32.33
2022-11-08T20:51:31.339Z,32.35
2022-11-08T20:54:05.439Z,32.60
2022-11-08T20:56:35.252Z,33.42
2022-11-08T20:59:06.740Z,33.70
2022-11-08T21:01:36.318Z,32.63
2022-11-08T21:04:06.226Z,32.88
2022-11-08T21:06:36.664Z,33.33
2022-11-08T21:09:33.051Z,36.13
2022-11-08T21:12:00.141Z,34.85
2022-11-08T21:14:30.920Z,35.13
2022-11-08T21:19:56.929Z,35.05
2022-11-08T21:22:40.868Z,34.92
2022-11-08T21:25:21.374Z,32.42
2022-11-08T21:27:53.500Z,34.03
2022-11-08T21:30:28.050Z,34.92
2022-11-08T21:32:58.098Z,34.22
2022-11-08T21:35:34.243Z,33.00
2022-11-08T21:38:16.211Z,35.42
2022-11-08T21:41:14.164Z,34.50
2022-11-08T21:43:48.599Z,33.10
2022-11-08T21:46:24.899Z,33.58
2022-11-08T21:48:56.335Z,33.17
2022-11-08T21:51:29.584Z,35.15
2022-11-08T21:54:00.746Z,35.97
2022-11-08T21:56:40.109Z,34.50
2022-11-08T21:59:13.538Z,33.60
2022-11-08T22:01:49.434Z,33.63
2022-11-08T22:04:19.779Z,36.47
2022-11-08T22:06:50.050Z,34.85
2022-11-08T22:09:22.534Z,36.45
2022-11-08T22:11:53.371Z,38.28
2022-11-08T22:14:25.538Z,36.50
2022-11-08T22:16:58.574Z,36.08
2022-11-08T22:19:31.354Z,36.30
2022-11-08T22:22:05.070Z,35.80
2022-11-08T22:24:37.584Z,34.92
2022-11-08T22:27:08.418Z,34.53
2022-11-08T22:29:38.204Z,33.40
2022-11-08T22:32:10.982Z,32.42
2022-11-08T22:34:41.236Z,30.77
2022-11-08T22:37:11.102Z,30.58
2022-11-08T22:39:40.567Z,27.98
2022-11-08T22:42:11.237Z,27.45
2022-11-08T22:44:43.459Z,29.40
2022-11-08T22:47:13.003Z,28.33
2022-11-08T22:49:47.020Z,28.23
2022-11-08T22:52:16.602Z,27.33
2022-11-08T22:54:46.829Z,27.50
2022-11-08T22:57:17.507Z,26.88
2022-11-08T22:59:47.436Z,28.15
2022-11-08T23:02:21.606Z,25.52
2022-11-08T23:04:51.425Z,25.60
2022-11-08T23:07:22.012Z,26.05
2022-11-08T23:09:51.995Z,25.70
2022-11-08T23:12:40.647Z,24.88
2022-11-08T23:15:29.321Z,24.17
2022-11-08T23:17:59.201Z,25.77
2022-11-08T23:20:47.119Z,24.13
2022-11-08T23:23:34.492Z,24.17
2022-11-08T23:26:04.372Z,26.77
2022-11-08T23:28:52.803Z,31.10
2022-11-08T23:31:38.054Z,27.90
2022-11-08T23:34:07.562Z,30.48
2022-11-08T23:36:37.496Z,26.10
2022-11-08T23:39:07.884Z,26.90
2022-11-08T23:41:52.390Z,26.42
2022-11-08T23:44:26.396Z,28.90
2022-11-08T23:46:57.515Z,27.45
2022-11-08T23:49:28.180Z,27.25
2022-11-08T23:51:57.800Z,28.40
2022-11-08T23:54:55.455Z,27.83
2022-11-08T23:57:24.845Z,27.77
2022-11-08T23:59:55.876Z,28.33
